Time;durP1;ratioP1;P1;durP2;ratioP2;P2;SDS_P1;SDS_P2;PMS_P1;PMS_P2;Temp;Humidity;BMP_temperature;BMP_pressure;BME280_temperature;BME280_humidity;BME280_pressure;Samples;Min_cycle;Max_cycle;Signal;HPM_P1;HPM_P2
2021/12/08 00:00:36;;;;;;;7.53;5.50;;;20.30;44.90;;;;;;6222062;28;20065;-70
2021/12/08 00:03:38;;;;;;;7.45;5.57;;;20.30;44.90;;;;;;6205758;28;20105;-71
2021/12/08 00:06:38;;;;;;;8.95;6.07;;;20.30;44.90;;;;;;6213159;28;20106;-72
2021/12/08 00:16:11;;;;;;;7.90;5.55;;;20.30;45.00;;;;;;6220492;28;20045;-71
2021/12/08 00:19:13;;;;;;;8.65;6.30;;;20.30;45.00;;;;;;6196694;28;20105;-71
2021/12/08 00:22:16;;;;;;;8.50;5.90;;;20.30;45.00;;;;;;6221320;28;20105;-70
2021/12/08 00:25:16;;;;;;;8.35;6.03;;;20.20;44.90;;;;;;6177954;28;20089;-71
2021/12/08 00:28:19;;;;;;;9.18;5.95;;;20.20;44.90;;;;;;6216128;28;20068;-70
2021/12/08 00:31:19;;;;;;;7.93;5.63;;;20.20;44.90;;;;;;6208690;28;20062;-71
2021/12/08 00:34:20;;;;;;;7.57;5.45;;;20.20;44.90;;;;;;6196766;28;20019;-70
2021/12/08 00:37:22;;;;;;;8.68;5.93;;;20.20;44.90;;;;;;6206477;28;20030;-70
2021/12/08 00:40:27;;;;;;;8.30;5.45;;;20.30;45.00;;;;;;6221082;28;20042;-71
2021/12/08 00:43:27;;;;;;;8.87;5.93;;;20.30;45.00;;;;;;6202941;28;20042;-71
2021/12/08 00:46:28;;;;;;;8.85;5.65;;;20.20;45.00;;;;;;6196401;28;20061;-70
2021/12/08 00:49:29;;;;;;;8.25;5.78;;;20.20;44.90;;;;;;6196374;28;20026;-71
2021/12/08 00:52:31;;;;;;;8.38;6.00;;;20.20;45.00;;;;;;6204959;28;20018;-71
2021/12/08 00:55:32;;;;;;;8.65;5.90;;;20.20;44.90;;;;;;6235792;28;20408;-71
2021/12/08 00:58:33;;;;;;;8.85;6.05;;;20.20;44.80;;;;;;6188168;28;20484;-71
2021/12/08 01:01:33;;;;;;;8.70;6.32;;;20.20;44.90;;;;;;6171998;28;20042;-70
2021/12/08 01:04:35;;;;;;;8.05;5.85;;;20.20;44.80;;;;;;6195580;28;20058;-70
2021/12/08 01:07:36;;;;;;;8.35;5.82;;;20.20;44.90;;;;;;6195900;28;20030;-70
2021/12/08 01:10:38;;;;;;;8.68;5.65;;;20.20;44.90;;;;;;6196213;28;20034;-70
2021/12/08 01:13:39;;;;;;;8.45;5.72;;;20.20;45.00;;;;;;6195837;28;20052;-70
2021/12/08 01:16:40;;;;;;;8.02;6.05;;;20.20;44.90;;;;;;6195495;28;20050;-70
2021/12/08 01:19:41;;;;;;;7.40;5.38;;;20.20;44.90;;;;;;6175764;28;20019;-71
2021/12/08 01:22:43;;;;;;;8.95;5.95;;;20.20;44.90;;;;;;6188904;28;20081;-71
2021/12/08 01:25:43;;;;;;;7.90;5.22;;;20.20;45.00;;;;;;6204328;28;20048;-71
2021/12/08 01:28:44;;;;;;;9.02;5.90;;;20.20;45.00;;;;;;6195565;28;20041;-71
2021/12/08 01:31:48;;;;;;;8.70;6.13;;;20.20;44.90;;;;;;6180498;28;20046;-71
2021/12/08 01:34:53;;;;;;;7.53;5.60;;;20.20;44.90;;;;;;6177265;28;20030;-70
2021/12/08 01:37:54;;;;;;;9.10;5.95;;;20.20;44.90;;;;;;6195244;28;20029;-71
2021/12/08 01:40:56;;;;;;;9.68;6.60;;;20.20;45.00;;;;;;6195526;28;20403;-72
2021/12/08 01:47:16;;;;;;;8.77;5.65;;;20.20;45.00;;;;;;6178637;28;20022;-71
2021/12/08 01:50:17;;;;;;;9.15;6.03;;;20.20;45.00;;;;;;6195574;28;20494;-70
2021/12/08 01:53:19;;;;;;;9.27;5.90;;;20.20;45.00;;;;;;6195179;28;20062;-70
2021/12/08 01:56:23;;;;;;;8.82;6.10;;;20.20;44.90;;;;;;6195762;28;20057;-71
2021/12/08 01:59:23;;;;;;;6.70;4.95;;;20.20;45.00;;;;;;6170679;28;20548;-72
2021/12/08 02:02:24;;;;;;;8.68;5.97;;;20.20;45.00;;;;;;6183423;28;20088;-70
2021/12/08 02:05:25;;;;;;;9.00;5.95;;;20.20;45.00;;;;;;6219366;28;20026;-71
2021/12/08 02:08:27;;;;;;;8.02;5.25;;;20.20;45.00;;;;;;6234233;28;20036;-72
2021/12/08 02:11:28;;;;;;;7.63;5.30;;;20.20;45.00;;;;;;6217716;28;20022;-70
2021/12/08 02:14:29;;;;;;;8.50;5.63;;;20.20;45.00;;;;;;6184907;28;20400;-71
2021/12/08 02:17:29;;;;;;;7.43;5.38;;;20.20;45.00;;;;;;6170624;28;20047;-70
2021/12/08 02:20:30;;;;;;;7.38;5.38;;;20.20;45.10;;;;;;6217415;28;20112;-70
2021/12/08 02:23:31;;;;;;;8.68;5.70;;;20.20;45.10;;;;;;6212075;28;20022;-71
2021/12/08 02:26:33;;;;;;;8.77;5.43;;;20.20;45.10;;;;;;6185338;28;20027;-71
2021/12/08 02:29:40;;;;;;;8.82;5.97;;;20.20;45.10;;;;;;6170989;28;20089;-70
2021/12/08 02:49:08;;;;;;;8.30;5.45;;;20.20;45.00;;;;;;6199111;28;20027;-71
2021/12/08 02:52:13;;;;;;;8.95;5.60;;;20.20;45.10;;;;;;6203642;28;20033;-71
2021/12/08 02:55:13;;;;;;;7.95;5.40;;;20.20;45.00;;;;;;6222173;28;20472;-71
2021/12/08 02:58:16;;;;;;;10.60;5.80;;;20.20;45.10;;;;;;6223081;28;20041;-70
2021/12/08 03:01:16;;;;;;;6.78;4.88;;;20.20;45.10;;;;;;6222262;28;20022;-71
2021/12/08 03:04:17;;;;;;;9.10;5.72;;;20.20;45.10;;;;;;6222214;28;20026;-71
2021/12/08 03:07:18;;;;;;;7.60;5.13;;;20.20;45.10;;;;;;6218818;28;20031;-71
2021/12/08 03:10:24;;;;;;;9.88;5.75;;;20.10;45.00;;;;;;6198855;28;20034;-72
2021/12/08 03:13:42;;;;;;;8.20;5.43;;;20.20;45.00;;;;;;6198639;28;20034;-71
2021/12/08 03:16:47;;;;;;;8.05;5.28;;;20.10;45.00;;;;;;6198537;28;20376;-71
2021/12/08 03:19:47;;;;;;;7.63;5.03;;;20.20;45.10;;;;;;6197474;28;20026;-70
2021/12/08 03:22:50;;;;;;;7.85;5.35;;;20.20;45.20;;;;;;6204813;28;20097;-71
2021/12/08 03:25:55;;;;;;;7.43;5.25;;;20.20;45.20;;;;;;6222621;28;20021;-70
2021/12/08 03:29:15;;;;;;;7.40;4.95;;;20.10;45.10;;;;;;6198452;28;20138;-71
2021/12/08 03:32:27;;;;;;;7.30;5.20;;;20.10;45.10;;;;;;6198337;28;20022;-73
2021/12/08 03:35:28;;;;;;;7.95;5.50;;;20.10;45.10;;;;;;6196997;28;20050;-71
2021/12/08 03:38:30;;;;;;;6.97;5.20;;;20.10;45.10;;;;;;6198140;28;20053;-70
2021/12/08 03:41:34;;;;;;;8.13;5.53;;;20.10;45.10;;;;;;6197951;28;20080;-71
2021/12/08 03:44:36;;;;;;;8.38;5.35;;;20.10;45.10;;;;;;6196969;28;20030;-71
2021/12/08 03:47:43;;;;;;;6.65;4.93;;;20.10;45.10;;;;;;6197842;28;20026;-71
2021/12/08 03:50:44;;;;;;;7.57;5.25;;;20.10;45.10;;;;;;6197877;28;20022;-72
2021/12/08 03:53:44;;;;;;;8.10;5.78;;;20.10;45.10;;;;;;6212977;28;20030;-71
2021/12/08 03:56:45;;;;;;;7.40;5.50;;;20.20;45.10;;;;;;6197618;28;20027;-71
2021/12/08 04:00:32;;;;;;;8.05;5.20;;;20.10;45.10;;;;;;6197904;28;20746;-71
2021/12/08 04:03:35;;;;;;;7.88;4.60;;;20.10;45.10;;;;;;6197991;28;20030;-72
2021/12/08 04:06:50;;;;;;;6.97;5.30;;;20.10;45.00;;;;;;6197717;28;20049;-70
2021/12/08 04:09:50;;;;;;;7.80;5.05;;;20.10;45.00;;;;;;6196207;28;20014;-70
2021/12/08 04:12:53;;;;;;;7.05;5.18;;;20.10;45.00;;;;;;6221931;28;20022;-70
2021/12/08 04:15:54;;;;;;;8.00;5.32;;;20.10;45.10;;;;;;6219567;28;20407;-70
2021/12/08 04:18:57;;;;;;;10.20;5.60;;;20.10;45.00;;;;;;6210288;28;20038;-70
2021/12/08 04:22:02;;;;;;;7.50;5.22;;;20.10;45.00;;;;;;6195815;28;20022;-71
2021/12/08 04:25:10;;;;;;;7.40;5.25;;;20.10;45.00;;;;;;6193374;28;20022;-70
2021/12/08 04:28:15;;;;;;;7.03;5.45;;;20.10;45.10;;;;;;6190799;28;20033;-70
2021/12/08 04:31:21;;;;;;;8.55;5.55;;;20.10;45.10;;;;;;6187544;28;20816;-70
2021/12/08 04:34:26;;;;;;;6.95;5.38;;;20.10;45.00;;;;;;6197043;28;20042;-71
2021/12/08 04:37:33;;;;;;;6.55;4.97;;;20.10;45.10;;;;;;6201862;28;20036;-72
2021/12/08 04:44:44;;;;;;;8.65;6.03;;;20.10;45.00;;;;;;6213375;28;20068;-71
2021/12/08 04:47:35;;;;;;;7.45;5.25;;;20.10;45.00;;;;;;6209746;28;20042;-71
2021/12/08 04:51:12;;;;;;;8.68;5.57;;;20.10;45.10;;;;;;6197023;28;20026;-72
2021/12/08 05:05:59;;;;;;;7.20;5.32;;;20.10;45.10;;;;;;6186184;28;20075;-71
2021/12/08 05:08:21;;;;;;;7.63;5.05;;;20.10;45.00;;;;;;6187127;28;20038;-71
2021/12/08 05:11:22;;;;;;;6.82;4.93;;;20.10;45.10;;;;;;6194780;28;20041;-71
2021/12/08 05:14:29;;;;;;;6.60;5.15;;;20.10;45.10;;;;;;6194954;28;20042;-70
2021/12/08 05:17:39;;;;;;;7.13;5.00;;;20.10;45.10;;;;;;6195808;28;20069;-70
2021/12/08 05:20:56;;;;;;;6.20;4.88;;;20.10;45.00;;;;;;6194749;28;20050;-71
2021/12/08 05:24:07;;;;;;;7.20;4.95;;;20.10;44.90;;;;;;6209893;28;20033;-71
2021/12/08 05:27:21;;;;;;;7.07;4.80;;;20.10;45.60;;;;;;6210225;28;20154;-71
2021/12/08 05:30:42;;;;;;;7.95;5.07;;;20.10;45.00;;;;;;6191310;28;20098;-70
2021/12/08 05:33:44;;;;;;;7.00;4.40;;;20.10;44.90;;;;;;6215659;28;20068;-71
2021/12/08 05:36:45;;;;;;;6.57;4.80;;;20.20;44.90;;;;;;6218544;28;20026;-71
2021/12/08 05:39:47;;;;;;;6.38;4.60;;;20.10;44.90;;;;;;6219954;28;20422;-71
2021/12/08 05:42:48;;;;;;;7.95;5.25;;;20.10;44.90;;;;;;6219888;28;20494;-71
2021/12/08 05:45:50;;;;;;;6.15;4.65;;;20.20;44.90;;;;;;6220280;28;20026;-72
2021/12/08 05:48:52;;;;;;;6.93;4.40;;;20.10;44.80;;;;;;6179621;28;20023;-71
2021/12/08 05:51:54;;;;;;;7.63;5.07;;;20.20;44.80;;;;;;6178610;28;20487;-71
2021/12/08 05:54:56;;;;;;;6.68;4.80;;;20.20;44.80;;;;;;6220388;28;20602;-70
2021/12/08 05:57:58;;;;;;;8.32;5.03;;;20.20;44.90;;;;;;6219559;28;20045;-71
2021/12/08 06:01:03;;;;;;;5.93;4.40;;;20.20;44.90;;;;;;6214028;28;20030;-70
2021/12/08 06:04:06;;;;;;;6.57;4.53;;;20.20;44.80;;;;;;6170193;28;20027;-71
2021/12/08 06:07:09;;;;;;;7.20;4.78;;;20.20;44.80;;;;;;6171524;28;20023;-71
2021/12/08 06:10:17;;;;;;;6.80;4.50;;;20.20;44.90;;;;;;6217229;28;20029;-72
2021/12/08 06:13:18;;;;;;;7.20;4.43;;;20.20;44.90;;;;;;6220796;28;20105;-71
2021/12/08 06:16:21;;;;;;;6.38;4.40;;;20.20;44.90;;;;;;6224796;28;20664;-70
2021/12/08 06:19:23;;;;;;;6.93;4.78;;;20.20;44.90;;;;;;6200882;28;20042;-71
2021/12/08 06:22:25;;;;;;;6.15;4.45;;;20.20;44.90;;;;;;6176978;28;20031;-70
2021/12/08 06:25:27;;;;;;;6.95;4.40;;;20.20;45.00;;;;;;6198261;28;20026;-71
2021/12/08 06:28:28;;;;;;;6.13;4.00;;;20.20;45.00;;;;;;6191309;28;20031;-71
2021/12/08 06:31:29;;;;;;;5.65;4.20;;;20.20;45.10;;;;;;6180349;28;20173;-71
2021/12/08 06:34:31;;;;;;;5.80;4.25;;;20.20;45.10;;;;;;6199469;28;20037;-71
2021/12/08 06:37:36;;;;;;;6.32;4.22;;;20.20;45.10;;;;;;6200180;28;20041;-71
2021/12/08 06:40:50;;;;;;;;;;;20.20;45.20;;;;;;6199474;28;20026;-70
2021/12/08 06:43:57;;;;;;;6.72;4.38;;;20.20;45.20;;;;;;6200070;28;19905;-70
2021/12/08 06:47:01;;;;;;;6.80;4.75;;;20.30;45.30;;;;;;6199905;28;20243;-71
2021/12/08 06:50:11;;;;;;;5.50;4.05;;;20.30;45.30;;;;;;6198310;28;20157;-71
2021/12/08 06:53:12;;;;;;;6.80;4.68;;;20.30;45.30;;;;;;6199401;28;20033;-72
2021/12/08 06:56:40;;;;;;;5.53;4.32;;;20.30;45.30;;;;;;6190223;28;20073;-71
2021/12/08 06:59:54;;;;;;;6.43;4.47;;;20.30;45.40;;;;;;6204849;28;20057;-71
2021/12/08 07:03:06;;;;;;;6.18;4.15;;;20.30;45.40;;;;;;6210564;28;20022;-74
2021/12/08 07:06:45;;;;;;;7.43;4.90;;;20.30;45.40;;;;;;6199304;28;20113;-72
2021/12/08 07:09:41;;;;;;;9.38;4.20;;;20.30;45.40;;;;;;6193928;28;20034;-71
2021/12/08 07:12:50;;;;;;;6.78;4.30;;;20.30;45.40;;;;;;6191874;28;20597;-71
2021/12/08 07:16:02;;;;;;;8.88;4.75;;;20.30;45.40;;;;;;6179417;28;20034;-72
2021/12/08 07:19:21;;;;;;;6.85;4.75;;;20.30;45.50;;;;;;6197928;28;20031;-71
2021/12/08 07:22:27;;;;;;;8.40;4.72;;;20.30;45.40;;;;;;6196490;28;20034;-72
2021/12/08 07:25:30;;;;;;;8.07;4.82;;;20.30;45.50;;;;;;6181054;28;20107;-72
2021/12/08 07:28:32;;;;;;;9.05;5.35;;;20.30;45.50;;;;;;6186380;28;20027;-72
2021/12/08 07:31:41;;;;;;;9.05;5.45;;;20.30;45.50;;;;;;6194685;28;20050;-72
2021/12/08 07:34:43;;;;;;;9.18;5.38;;;20.30;45.50;;;;;;6175075;28;20413;-72
2021/12/08 07:37:44;;;;;;;8.13;4.85;;;20.30;45.60;;;;;;6204549;28;20402;-72
2021/12/08 07:40:58;;;;;;;8.80;5.55;;;20.30;45.60;;;;;;6219906;28;20570;-72
2021/12/08 07:44:04;;;;;;;9.63;5.38;;;20.30;45.60;;;;;;6219385;28;20046;-72
2021/12/08 07:47:10;;;;;;;7.90;5.05;;;20.30;45.60;;;;;;6198102;28;20089;-72
2021/12/08 07:50:32;;;;;;;10.98;5.78;;;20.30;45.60;;;;;;6197360;28;20113;-72
2021/12/08 07:53:33;;;;;;;9.48;6.03;;;20.30;45.60;;;;;;6187922;28;20022;-72
2021/12/08 07:56:35;;;;;;;10.38;5.60;;;20.30;45.60;;;;;;6179610;28;20027;-72
2021/12/08 07:59:43;;;;;;;9.02;5.60;;;20.30;45.60;;;;;;6200225;28;20034;-72
2021/12/08 08:02:44;;;;;;;9.40;5.57;;;20.30;45.60;;;;;;6199094;28;20019;-72
2021/12/08 08:05:47;;;;;;;10.05;5.43;;;20.30;45.60;;;;;;6197982;28;20432;-72
2021/12/08 08:08:48;;;;;;;9.45;5.53;;;20.30;45.70;;;;;;6188913;28;20551;-72
2021/12/08 08:11:57;;;;;;;8.43;5.32;;;20.30;45.60;;;;;;6185592;28;20026;-72
2021/12/08 08:15:00;;;;;;;9.90;5.60;;;20.30;45.60;;;;;;6188939;28;20121;-72
2021/12/08 08:18:06;;;;;;;9.90;5.68;;;20.30;45.70;;;;;;6189982;28;20496;-72
2021/12/08 08:21:15;;;;;;;9.25;5.43;;;20.30;45.70;;;;;;6177951;28;20022;-72
2021/12/08 08:24:18;;;;;;;9.27;5.60;;;20.30;45.70;;;;;;6181958;28;20492;-72
2021/12/08 08:27:19;;;;;;;9.10;5.47;;;20.30;45.70;;;;;;6182807;28;20030;-72
2021/12/08 08:30:28;;;;;;;8.43;5.47;;;20.30;45.70;;;;;;6173881;28;20027;-73
2021/12/08 08:33:31;;;;;;;9.07;5.50;;;20.40;45.80;;;;;;6176735;28;20041;-72
2021/12/08 08:36:36;;;;;;;8.93;5.45;;;20.30;45.70;;;;;;6194902;28;20030;-72
2021/12/08 08:39:41;;;;;;;10.00;5.88;;;20.30;45.70;;;;;;6197459;28;20066;-72
2021/12/08 08:42:43;;;;;;;10.35;6.40;;;20.30;45.70;;;;;;6182350;28;20031;-72
2021/12/08 08:45:52;;;;;;;9.27;5.43;;;20.30;45.70;;;;;;6173518;28;20424;-72
2021/12/08 08:49:00;;;;;;;8.05;5.07;;;20.30;45.70;;;;;;6178312;28;20050;-72
2021/12/08 08:52:16;;;;;;;9.07;5.25;;;20.30;46.40;;;;;;6191950;28;20110;-72
2021/12/08 08:55:23;;;;;;;9.05;5.57;;;20.30;45.70;;;;;;6196382;28;20502;-72
2021/12/08 08:58:26;;;;;;;11.80;5.43;;;20.40;45.80;;;;;;6197318;28;20542;-72
2021/12/08 09:01:35;;;;;;;9.68;5.65;;;20.30;45.70;;;;;;6192528;28;20113;-72
2021/12/08 09:04:43;;;;;;;7.60;5.15;;;20.30;45.70;;;;;;6172942;28;20057;-72
2021/12/08 09:07:46;;;;;;;9.70;5.55;;;20.40;45.80;;;;;;6193234;28;20515;-72
2021/12/08 09:10:56;;;;;;;8.30;5.20;;;20.30;45.80;;;;;;6196936;28;20092;-71
2021/12/08 09:14:09;;;;;;;12.07;6.00;;;20.30;45.80;;;;;;6196899;28;20034;-71
2021/12/08 09:17:23;;;;;;;12.98;6.03;;;20.30;45.70;;;;;;6194975;28;20046;-71
2021/12/08 09:20:58;;;;;;;10.70;6.10;;;20.30;45.80;;;;;;6172735;28;20029;-71
2021/12/08 09:24:08;;;;;;;13.25;5.82;;;20.40;46.10;;;;;;6174229;28;20023;-72
2021/12/08 09:27:10;;;;;;;9.43;5.68;;;20.40;45.80;;;;;;6180739;28;20027;-72
2021/12/08 09:30:33;;;;;;;10.98;6.18;;;20.40;45.80;;;;;;6196492;28;20092;-72
2021/12/08 09:33:42;;;;;;;10.15;6.15;;;20.40;45.80;;;;;;6174927;28;20042;-72
2021/12/08 09:36:52;;;;;;;9.68;6.28;;;20.40;45.80;;;;;;6218455;28;20535;-72
2021/12/08 09:40:14;;;;;;;9.55;5.80;;;20.40;45.70;;;;;;6186420;28;20084;-71
2021/12/08 09:43:22;;;;;;;10.15;5.88;;;20.40;45.70;;;;;;6217293;28;20033;-71
2021/12/08 09:46:32;;;;;;;9.52;5.63;;;20.40;45.70;;;;;;6186764;28;20015;-72
2021/12/08 09:49:34;;;;;;;12.48;6.30;;;20.40;45.70;;;;;;6173705;28;20392;-72
2021/12/08 09:52:35;;;;;;;9.65;5.82;;;20.40;45.80;;;;;;6194231;28;20034;-71
2021/12/08 09:55:36;;;;;;;10.55;5.90;;;20.40;45.80;;;;;;6198467;28;20721;-72
2021/12/08 09:58:38;;;;;;;10.18;5.57;;;20.40;45.80;;;;;;6217111;28;20018;-71
2021/12/08 10:01:41;;;;;;;10.20;6.32;;;20.40;45.80;;;;;;6208083;28;20068;-71
2021/12/08 10:04:42;;;;;;;7.82;5.45;;;20.40;45.80;;;;;;6213226;28;20049;-71
2021/12/08 10:07:43;;;;;;;8.68;5.80;;;20.40;45.80;;;;;;6190532;28;20030;-71
2021/12/08 10:10:45;;;;;;;9.30;5.70;;;20.40;45.90;;;;;;6206456;28;20419;-71
2021/12/08 10:13:46;;;;;;;11.45;6.20;;;20.40;45.80;;;;;;6190512;28;20538;-72
2021/12/08 10:16:50;;;;;;;10.13;6.20;;;20.40;45.80;;;;;;6201336;28;20040;-72
2021/12/08 10:20:17;;;;;;;9.98;5.97;;;20.40;45.80;;;;;;6198265;28;20114;-72
2021/12/08 10:23:38;;;;;;;11.13;6.65;;;20.50;45.70;;;;;;6198796;28;20114;-71
2021/12/08 10:26:39;;;;;;;11.13;5.57;;;20.50;45.70;;;;;;6187939;28;20018;-72
2021/12/08 10:29:39;;;;;;;10.05;5.97;;;20.50;45.70;;;;;;6195676;28;20073;-71
2021/12/08 10:32:40;;;;;;;9.20;5.75;;;20.50;45.70;;;;;;6221198;28;20034;-72
2021/12/08 10:35:45;;;;;;;10.77;6.20;;;20.50;45.80;;;;;;6219657;28;20033;-71
2021/12/08 10:38:45;;;;;;;10.20;5.97;;;20.50;45.80;;;;;;6211059;28;20034;-71
2021/12/08 10:41:59;;;;;;;10.52;6.00;;;20.50;45.70;;;;;;6201422;28;20027;-72
2021/12/08 10:45:14;;;;;;;11.73;6.43;;;20.50;45.80;;;;;;6212243;28;20469;-71
2021/12/08 10:48:32;;;;;;;8.52;5.35;;;20.50;45.80;;;;;;6204761;28;20022;-71
2021/12/08 10:55:06;;;;;;;9.38;6.00;;;20.50;45.90;;;;;;6218466;28;20442;-72
2021/12/08 10:58:07;;;;;;;9.20;5.95;;;20.50;45.90;;;;;;6194982;28;20658;-71
2021/12/08 11:01:16;;;;;;;9.63;5.88;;;20.50;46.00;;;;;;6202458;28;20023;-72
2021/12/08 11:04:17;;;;;;;10.23;5.80;;;20.50;46.00;;;;;;6206013;28;20025;-71
2021/12/08 11:07:18;;;;;;;8.38;5.32;;;20.60;45.90;;;;;;6205400;28;20396;-71
2021/12/08 11:10:19;;;;;;;7.60;5.55;;;20.60;45.70;;;;;;6198850;28;20023;-72
2021/12/08 11:13:24;;;;;;;9.43;6.05;;;20.60;45.60;;;;;;6210630;28;20472;-72
2021/12/08 11:16:34;;;;;;;9.25;6.35;;;20.60;45.80;;;;;;6198496;28;20125;-71
2021/12/08 11:19:34;;;;;;;10.45;5.93;;;20.60;45.60;;;;;;6200826;28;20120;-71
2021/12/08 11:22:35;;;;;;;8.57;5.50;;;20.60;45.50;;;;;;6206867;28;20084;-71
2021/12/08 11:25:39;;;;;;;9.55;5.93;;;20.60;45.60;;;;;;6200726;28;20026;-68
2021/12/08 11:28:45;;;;;;;10.30;6.25;;;20.60;45.60;;;;;;6196155;28;20447;-68
2021/12/08 11:31:52;;;;;;;11.32;6.43;;;20.60;45.70;;;;;;6204041;28;20034;-68
2021/12/08 11:34:55;;;;;;;13.40;8.27;;;20.60;45.80;;;;;;6199865;28;20133;-68
2021/12/08 11:38:00;;;;;;;18.67;10.60;;;20.50;44.70;;;;;;6199380;28;20053;-68
2021/12/08 11:41:00;;;;;;;17.38;10.63;;;20.50;44.40;;;;;;6223275;28;20022;-69
2021/12/08 11:44:06;;;;;;;21.27;11.88;;;20.50;44.10;;;;;;6178864;28;20027;-68
2021/12/08 11:47:22;;;;;;;20.05;13.05;;;20.40;43.70;;;;;;6210822;28;20015;-68
2021/12/08 11:50:22;;;;;;;24.88;14.02;;;20.40;43.40;;;;;;6185030;28;20018;-67
2021/12/08 11:53:23;;;;;;;22.60;13.63;;;20.40;43.00;;;;;;6210903;28;20871;-68
2021/12/08 11:56:38;;;;;;;22.65;13.40;;;20.40;42.90;;;;;;6196775;28;20072;-67
2021/12/08 11:59:46;;;;;;;30.20;16.23;;;20.40;43.30;;;;;;6177667;28;20129;-67
2021/12/08 12:03:01;;;;;;;28.98;16.02;;;20.30;41.90;;;;;;6188172;28;20035;-67
2021/12/08 12:06:02;;;;;;;32.00;17.70;;;20.30;42.30;;;;;;6194114;28;20110;-71
2021/12/08 12:09:06;;;;;;;29.75;17.85;;;20.30;41.40;;;;;;6180647;28;20532;-68
2021/12/08 12:12:07;;;;;;;36.33;18.35;;;20.30;41.10;;;;;;6206467;28;20088;-68
2021/12/08 12:15:10;;;;;;;30.90;16.48;;;20.30;41.10;;;;;;6220501;28;20109;-71
2021/12/08 12:18:18;;;;;;;31.85;17.80;;;20.30;41.00;;;;;;6210225;28;20049;-72
2021/12/08 12:21:33;;;;;;;34.25;17.80;;;20.30;39.20;;;;;;6211537;28;20384;-71
2021/12/08 12:24:52;;;;;;;29.33;16.58;;;20.30;39.50;;;;;;6197982;28;20026;-72
2021/12/08 12:28:47;;;;;;;25.98;15.88;;;20.40;40.10;;;;;;6174251;28;20114;-71
2021/12/08 12:32:33;;;;;;;36.13;16.35;;;20.40;40.00;;;;;;6160455;28;20058;-71
2021/12/08 12:35:34;;;;;;;28.87;16.90;;;20.50;40.90;;;;;;6180918;28;20120;-69
2021/12/08 12:38:38;;;;;;;29.23;17.35;;;20.40;41.50;;;;;;6219666;28;20037;-69
2021/12/08 12:41:39;;;;;;;32.40;18.85;;;20.50;41.80;;;;;;6221943;28;20625;-69
2021/12/08 12:45:07;;;;;;;28.92;16.25;;;20.40;41.80;;;;;;6173858;28;20023;-69
2021/12/08 12:48:14;;;;;;;26.25;14.65;;;20.50;41.80;;;;;;6187828;28;20026;-69
2021/12/08 12:51:15;;;;;;;29.15;15.43;;;20.40;41.90;;;;;;6208195;28;20487;-69
2021/12/08 12:54:27;;;;;;;29.42;15.35;;;20.40;41.80;;;;;;6197883;28;20023;-69
2021/12/08 12:57:27;;;;;;;25.08;14.10;;;20.50;42.00;;;;;;6197908;28;20030;-69
2021/12/08 13:00:34;;;;;;;23.83;14.43;;;20.50;42.10;;;;;;6182590;28;20045;-70
2021/12/08 13:03:39;;;;;;;22.67;13.30;;;20.50;42.10;;;;;;6182088;28;20082;-69
2021/12/08 13:06:56;;;;;;;22.23;13.45;;;20.40;42.10;;;;;;6190837;28;20383;-70
2021/12/08 13:10:13;;;;;;;26.90;14.15;;;20.50;42.50;;;;;;6221571;28;20488;-69
2021/12/08 13:13:15;;;;;;;19.23;11.73;;;20.50;42.60;;;;;;6198997;28;20339;-69
2021/12/08 13:16:28;;;;;;;21.73;12.52;;;20.50;42.70;;;;;;6195789;28;20042;-69
2021/12/08 13:19:45;;;;;;;25.55;11.95;;;20.50;42.80;;;;;;6221073;28;20065;-69
2021/12/08 13:22:54;;;;;;;22.25;12.32;;;20.40;42.80;;;;;;6184597;28;20050;-69
2021/12/08 13:26:07;;;;;;;19.95;12.27;;;20.50;42.90;;;;;;6174649;28;20155;-69
2021/12/08 13:29:22;;;;;;;19.65;12.60;;;20.50;43.00;;;;;;6194458;28;20065;-69
2021/12/08 13:32:44;;;;;;;20.60;12.52;;;20.50;42.90;;;;;;6201884;28;20033;-69
2021/12/08 13:35:44;;;;;;;20.65;12.27;;;20.50;43.60;;;;;;6202473;28;20026;-70
2021/12/08 13:39:04;;;;;;;20.58;12.70;;;20.50;43.00;;;;;;6207407;28;20040;-73
2021/12/08 13:42:15;;;;;;;18.30;10.75;;;20.50;43.10;;;;;;6207561;28;20064;-69
2021/12/08 13:45:16;;;;;;;18.73;11.27;;;20.50;43.10;;;;;;6195635;28;20112;-69
2021/12/08 13:48:17;;;;;;;19.63;11.95;;;20.50;43.10;;;;;;6194164;28;20360;-70
2021/12/08 13:51:20;;;;;;;19.88;11.60;;;20.50;43.10;;;;;;6189711;28;20034;-69
2021/12/08 13:54:27;;;;;;;20.48;11.68;;;20.50;43.10;;;;;;6214534;28;20026;-69
2021/12/08 13:57:48;;;;;;;16.73;10.90;;;20.50;43.10;;;;;;6202585;28;20041;-69
2021/12/08 14:00:59;;;;;;;19.15;11.57;;;20.50;43.20;;;;;;6208458;28;20101;-70
2021/12/08 14:03:59;;;;;;;17.38;10.65;;;20.50;43.20;;;;;;6209443;28;20026;-70
2021/12/08 14:07:00;;;;;;;20.35;11.88;;;20.50;43.20;;;;;;6204554;28;20438;-70
2021/12/08 14:10:05;;;;;;;23.08;10.98;;;20.50;43.40;;;;;;6195366;28;20054;-70
2021/12/08 14:13:14;;;;;;;25.45;11.82;;;20.60;43.50;;;;;;6190168;28;20029;-68
2021/12/08 14:16:22;;;;;;;19.35;11.35;;;20.60;43.40;;;;;;6213038;28;20315;-70
2021/12/08 14:19:22;;;;;;;18.23;10.27;;;20.60;43.50;;;;;;6210071;28;20080;-68
2021/12/08 14:22:39;;;;;;;18.77;10.13;;;20.60;43.60;;;;;;6206681;28;20026;-70
2021/12/08 14:25:46;;;;;;;19.42;11.88;;;20.50;43.50;;;;;;6220463;28;20077;-70
2021/12/08 14:28:58;;;;;;;24.15;13.90;;;20.50;43.10;;;;;;6193794;28;20026;-72
2021/12/08 14:31:59;;;;;;;31.08;14.85;;;20.50;41.90;;;;;;6191254;28;20038;-72
2021/12/08 14:35:10;;;;;;;24.73;13.93;;;20.50;41.90;;;;;;6205402;28;20026;-72
2021/12/08 14:38:11;;;;;;;22.23;12.50;;;20.50;42.20;;;;;;6195004;28;20030;-73
2021/12/08 14:41:21;;;;;;;24.50;12.98;;;20.50;42.40;;;;;;6197107;28;20510;-72
2021/12/08 14:44:25;;;;;;;20.42;12.75;;;20.50;42.50;;;;;;6208400;28;20026;-72
2021/12/08 14:47:32;;;;;;;21.58;12.73;;;20.50;42.60;;;;;;6220314;28;20069;-71
2021/12/08 14:50:33;;;;;;;21.80;12.68;;;20.50;42.60;;;;;;6191928;28;20023;-73
2021/12/08 14:53:35;;;;;;;22.67;12.73;;;20.50;42.70;;;;;;6199709;28;20030;-73
2021/12/08 14:56:36;;;;;;;21.65;12.38;;;20.50;42.80;;;;;;6179043;28;20069;-73
2021/12/08 14:59:47;;;;;;;21.70;12.00;;;20.50;42.80;;;;;;6195222;28;20022;-73
2021/12/08 15:03:10;;;;;;;20.50;11.40;;;20.50;42.90;;;;;;6218217;28;20027;-74
2021/12/08 15:06:20;;;;;;;23.08;12.40;;;20.50;42.90;;;;;;6207477;28;20100;-73
2021/12/08 15:09:25;;;;;;;19.40;11.52;;;20.50;43.00;;;;;;6192909;28;20026;-74
2021/12/08 15:12:26;;;;;;;28.52;11.70;;;20.60;43.20;;;;;;6189107;28;20050;-73
2021/12/08 15:15:27;;;;;;;40.50;12.50;;;20.60;43.10;;;;;;6221372;28;20510;-74
2021/12/08 15:18:30;;;;;;;31.00;11.15;;;20.60;43.30;;;;;;6211341;28;20046;-71
2021/12/08 15:21:39;;;;;;;26.58;11.32;;;20.60;43.10;;;;;;6223525;28;20047;-71
2021/12/08 15:24:39;;;;;;;25.45;10.90;;;20.60;43.10;;;;;;6201873;28;20018;-73
2021/12/08 15:27:43;;;;;;;29.23;10.82;;;20.60;43.20;;;;;;6189334;28;20039;-74
2021/12/08 15:30:47;;;;;;;25.35;11.18;;;20.60;43.30;;;;;;6207495;28;20026;-70
2021/12/08 15:33:48;;;;;;;19.00;10.38;;;20.60;43.40;;;;;;6200310;28;20080;-70
2021/12/08 15:37:09;;;;;;;21.17;11.02;;;20.60;43.50;;;;;;6187391;28;20042;-70
2021/12/08 15:40:11;;;;;;;24.33;10.93;;;20.60;43.50;;;;;;6207679;28;20116;-75
2021/12/08 15:43:15;;;;;;;22.08;9.98;;;20.60;43.60;;;;;;6206630;28;20503;-71
2021/12/08 15:46:25;;;;;;;25.17;10.73;;;20.60;43.90;;;;;;6201248;28;20030;-70
2021/12/08 15:49:36;;;;;;;18.75;10.43;;;20.60;44.00;;;;;;6177186;28;20555;-74
2021/12/08 15:52:38;;;;;;;18.75;10.45;;;20.60;43.90;;;;;;6195032;28;20050;-74
2021/12/08 15:55:39;;;;;;;20.95;11.23;;;20.60;43.90;;;;;;6197848;28;20030;-72
2021/12/08 15:58:52;;;;;;;16.48;9.85;;;20.60;44.00;;;;;;6214023;28;20026;-71
2021/12/08 16:01:53;;;;;;;15.50;9.93;;;20.60;44.10;;;;;;6198458;28;21101;-71
2021/12/08 16:05:05;;;;;;;17.90;9.68;;;20.60;44.10;;;;;;6187702;28;20022;-73
2021/12/08 16:08:45;;;;;;;18.63;9.38;;;20.60;44.10;;;;;;6191273;28;20027;-70
2021/12/08 16:11:56;;;;;;;15.00;9.45;;;20.60;44.10;;;;;;6181690;28;20030;-72
2021/12/08 16:15:01;;;;;;;17.08;9.20;;;20.60;44.10;;;;;;6204884;28;20022;-74
2021/12/08 16:18:03;;;;;;;17.05;10.45;;;20.60;44.10;;;;;;6204622;28;20038;-73
2021/12/08 16:21:03;;;;;;;15.40;9.13;;;20.60;44.50;;;;;;6204009;28;20036;-75
2021/12/08 16:24:05;;;;;;;19.80;9.40;;;20.70;44.30;;;;;;6186061;28;20488;-74
2021/12/08 16:27:08;;;;;;;16.13;8.98;;;20.70;44.20;;;;;;6191821;28;20069;-74
2021/12/08 16:30:08;;;;;;;13.05;8.95;;;20.70;44.30;;;;;;6197162;28;20041;-74
2021/12/08 16:33:10;;;;;;;17.20;9.63;;;20.70;44.20;;;;;;6196543;28;20030;-74
2021/12/08 16:36:10;;;;;;;15.40;9.25;;;20.70;44.30;;;;;;6196865;28;20038;-74
2021/12/08 16:39:13;;;;;;;14.57;9.07;;;20.60;44.20;;;;;;6218201;28;20120;-74
2021/12/08 16:45:42;;;;;;;15.32;8.55;;;20.60;44.40;;;;;;6196285;28;20054;-74
2021/12/08 16:48:43;;;;;;;14.48;9.02;;;20.60;44.50;;;;;;6193500;28;20121;-74